createdAt,value
2022-12-11T00:01:15.210Z,98757.59
2022-12-11T00:03:45.000Z,98755.13
2022-12-11T00:06:15.884Z,98757.72
2022-12-11T00:08:44.507Z,98760.28
2022-12-11T00:11:15.291Z,98756.78
2022-12-11T00:13:44.369Z,98755.16
2022-12-11T00:16:12.803Z,98752.53
2022-12-11T00:18:41.584Z,98748.13
2022-12-11T00:21:14.707Z,98755.03
2022-12-11T00:23:43.243Z,98755.06
2022-12-11T00:26:15.369Z,98754.97
2022-12-11T00:28:44.977Z,98752.28
2022-12-11T00:31:15.772Z,98748.03
2022-12-11T00:33:44.814Z,98746.31
2022-12-11T00:36:16.836Z,98746.28
2022-12-11T00:38:45.680Z,98739.31
2022-12-11T00:41:14.052Z,98744.59
2022-12-11T00:43:42.815Z,98743.69
2022-12-11T00:46:11.688Z,98754.03
2022-12-11T00:48:40.339Z,98748.84
2022-12-11T00:51:09.143Z,98753.19
2022-12-11T00:53:39.465Z,98754.91
2022-12-11T00:56:13.585Z,98747.16
2022-12-11T00:58:41.998Z,98761.75
2022-12-11T01:01:12.098Z,98755.75
2022-12-11T01:03:40.852Z,98755.72
2022-12-11T01:06:09.709Z,98766.06
2022-12-11T01:08:39.470Z,98765.25
2022-12-11T01:11:09.292Z,98763.59
2022-12-11T01:13:38.717Z,98757.47
2022-12-11T01:16:08.959Z,98762.75
2022-12-11T01:18:37.792Z,98753.22
2022-12-11T01:21:08.034Z,98761.00
2022-12-11T01:23:36.805Z,98760.09
2022-12-11T01:26:11.588Z,98765.38
2022-12-11T01:28:40.346Z,98759.34
2022-12-11T01:31:09.929Z,98769.69
2022-12-11T01:33:39.167Z,98760.16
2022-12-11T01:36:10.126Z,98765.31
2022-12-11T01:38:38.677Z,98747.06
2022-12-11T01:41:07.263Z,98748.84
2022-12-11T01:43:37.339Z,98742.81
2022-12-11T01:46:06.075Z,98739.28
2022-12-11T01:48:39.244Z,98736.66
2022-12-11T01:51:10.642Z,98735.91
2022-12-11T01:53:44.586Z,98730.56
2022-12-11T01:56:13.206Z,98726.31
2022-12-11T01:58:48.587Z,98722.00
2022-12-11T02:01:23.410Z,98719.38
2022-12-11T02:03:52.155Z,98715.94
2022-12-11T02:06:36.793Z,98726.19
2022-12-11T02:09:08.830Z,98717.50
2022-12-11T02:11:48.592Z,98718.41
2022-12-11T02:14:27.930Z,98722.75
2022-12-11T02:17:03.343Z,98719.28
2022-12-11T02:19:51.914Z,98722.78
2022-12-11T02:22:29.674Z,98727.88
2022-12-11T02:25:10.896Z,98724.53
2022-12-11T02:27:45.166Z,98725.47
2022-12-11T02:30:16.530Z,98726.31
2022-12-11T02:32:49.617Z,98725.47
2022-12-11T02:35:22.666Z,98725.50
2022-12-11T02:37:57.525Z,98731.56
2022-12-11T02:40:31.656Z,98726.41
2022-12-11T02:43:03.868Z,98716.84
2022-12-11T02:45:35.835Z,98718.59
2022-12-11T02:48:06.655Z,98725.53
2022-12-11T02:50:37.738Z,98711.69
2022-12-11T02:53:08.341Z,98713.50
2022-12-11T02:55:39.450Z,98703.94
2022-12-11T02:58:13.882Z,98705.69
2022-12-11T03:00:45.209Z,98704.88
2022-12-11T03:03:14.010Z,98697.13
2022-12-11T03:05:43.667Z,98702.31
2022-12-11T03:08:12.149Z,98696.25
2022-12-11T03:10:40.585Z,98699.56
2022-12-11T03:13:09.101Z,98690.16
2022-12-11T03:15:48.909Z,98691.00
2022-12-11T03:18:22.339Z,98686.69
2022-12-11T03:21:02.110Z,98673.69
2022-12-11T03:23:35.760Z,98668.56
2022-12-11T03:26:06.648Z,98673.75
2022-12-11T03:28:42.955Z,98662.53
2022-12-11T03:31:15.530Z,98673.75
2022-12-11T03:33:47.603Z,98675.53
2022-12-11T03:36:22.003Z,98673.78
2022-12-11T03:38:55.200Z,98671.09
2022-12-11T03:41:26.837Z,98665.91
2022-12-11T03:43:58.373Z,98672.84
2022-12-11T03:46:32.532Z,98678.03
2022-12-11T03:49:06.642Z,98676.28
2022-12-11T03:51:36.701Z,98672.88
2022-12-11T03:54:05.693Z,98672.88
2022-12-11T03:56:37.969Z,98670.25
2022-12-11T03:59:06.410Z,98674.53
2022-12-11T04:01:36.320Z,98683.28
2022-12-11T04:04:05.095Z,98678.94
2022-12-11T04:06:33.526Z,98690.19
2022-12-11T04:09:01.915Z,98694.53
2022-12-11T04:11:36.161Z,98692.88
2022-12-11T04:18:11.402Z,98688.59
2022-12-11T04:20:57.049Z,98686.00
2022-12-11T04:23:43.046Z,98691.13
2022-12-11T04:26:13.892Z,98679.06
2022-12-11T04:28:43.392Z,98691.16
2022-12-11T04:31:13.962Z,98689.47
2022-12-11T04:33:43.905Z,98694.53
2022-12-11T04:36:13.154Z,98694.53
2022-12-11T04:38:42.060Z,98689.28
2022-12-11T04:41:13.891Z,98685.81
2022-12-11T04:43:45.186Z,98678.94
2022-12-11T04:46:16.498Z,98672.81
2022-12-11T04:48:47.851Z,98673.59
2022-12-11T04:51:18.847Z,98664.97
2022-12-11T04:53:47.585Z,98666.66
2022-12-11T04:56:17.657Z,98663.22
2022-12-11T04:58:46.791Z,98655.41
2022-12-11T05:01:17.449Z,98665.81
2022-12-11T05:03:48.013Z,98665.75
2022-12-11T05:06:16.478Z,98664.00
2022-12-11T05:08:45.179Z,98671.75
2022-12-11T05:11:15.865Z,98672.63
2022-12-11T05:13:45.373Z,98672.66
2022-12-11T05:16:16.318Z,98660.47
2022-12-11T05:18:44.910Z,98679.53
2022-12-11T05:21:16.144Z,98683.84
2022-12-11T05:23:44.922Z,98675.97
2022-12-11T05:26:16.203Z,98669.97
2022-12-11T05:28:44.956Z,98673.47
2022-12-11T05:31:15.588Z,98668.38
2022-12-11T05:33:44.292Z,98658.06
2022-12-11T05:36:18.367Z,98664.13
2022-12-11T05:38:47.584Z,98658.94
2022-12-11T05:41:18.799Z,98664.13
2022-12-11T05:43:47.300Z,98659.78
2022-12-11T05:46:17.831Z,98656.41
2022-12-11T05:48:47.909Z,98655.56
2022-12-11T05:51:18.675Z,98655.50
2022-12-11T05:53:49.167Z,98648.59
2022-12-11T05:56:20.564Z,98662.34
2022-12-11T05:58:50.205Z,98653.72
2022-12-11T06:01:21.396Z,98650.28
2022-12-11T06:03:49.877Z,98645.75
2022-12-11T06:06:19.670Z,98655.25
2022-12-11T06:08:50.789Z,98649.19
2022-12-11T06:11:23.752Z,98647.53
2022-12-11T06:13:53.365Z,98645.75
2022-12-11T06:16:22.651Z,98647.53
2022-12-11T06:18:54.682Z,98633.81
2022-12-11T06:21:30.357Z,98643.38
2022-12-11T06:24:00.749Z,98639.03
2022-12-11T06:26:29.678Z,98636.47
2022-12-11T06:28:58.115Z,98647.56
2022-12-11T06:31:26.580Z,98657.75
2022-12-11T06:33:55.295Z,98658.38
2022-12-11T06:36:27.299Z,98660.13
2022-12-11T06:38:56.330Z,98658.41
2022-12-11T06:41:24.700Z,98662.78
2022-12-11T06:43:53.035Z,98662.75
2022-12-11T06:46:21.576Z,98665.47
2022-12-11T06:48:50.330Z,98661.28
2022-12-11T06:51:20.629Z,98650.09
2022-12-11T06:53:53.971Z,98657.97
2022-12-11T06:56:23.416Z,98648.59
2022-12-11T06:58:52.005Z,98651.97
2022-12-11T07:01:23.588Z,98658.78
2022-12-11T07:03:53.773Z,98648.34
2022-12-11T07:06:22.879Z,98654.44
2022-12-11T07:08:52.825Z,98651.97
2022-12-11T07:11:22.277Z,98655.38
2022-12-11T07:13:50.728Z,98657.06
2022-12-11T07:16:19.947Z,98657.97
2022-12-11T07:18:50.039Z,98655.31
2022-12-11T07:21:19.343Z,98653.56
2022-12-11T07:23:48.062Z,98659.63
2022-12-11T07:26:19.770Z,98660.50
2022-12-11T07:32:36.283Z,98656.13
2022-12-11T07:35:05.476Z,98658.72
2022-12-11T07:37:33.974Z,98655.19
2022-12-11T07:40:02.515Z,98659.59
2022-12-11T07:42:32.256Z,98651.88
2022-12-11T07:45:00.830Z,98654.47
2022-12-11T07:47:29.203Z,98658.03
2022-12-11T07:49:57.694Z,98652.84
2022-12-11T07:52:26.300Z,98665.69
2022-12-11T07:54:54.742Z,98658.63
2022-12-11T07:57:23.105Z,98660.34
2022-12-11T07:59:52.856Z,98663.69
2022-12-11T08:02:21.951Z,98664.63
2022-12-11T08:04:50.504Z,98675.00
2022-12-11T08:07:18.897Z,98669.03
2022-12-11T08:09:47.320Z,98662.16
2022-12-11T08:12:15.706Z,98658.81
2022-12-11T08:14:44.110Z,98660.59
2022-12-11T08:17:14.041Z,98664.13
2022-12-11T08:23:30.367Z,98653.03
2022-12-11T08:25:58.731Z,98655.78
2022-12-11T08:28:27.462Z,98660.97
2022-12-11T08:30:55.888Z,98665.22
2022-12-11T08:33:25.633Z,98660.88
2022-12-11T08:35:54.023Z,98653.19
2022-12-11T08:38:25.617Z,98655.81
2022-12-11T08:40:54.238Z,98650.75
2022-12-11T08:43:22.604Z,98657.81
2022-12-11T08:45:51.208Z,98643.97
2022-12-11T08:48:20.784Z,98639.75
2022-12-11T08:50:50.641Z,98637.13
2022-12-11T08:53:19.040Z,98644.81
2022-12-11T08:55:47.401Z,98645.75
2022-12-11T08:58:15.825Z,98647.44
2022-12-11T09:00:44.189Z,98648.31
2022-12-11T09:03:13.055Z,98641.38
2022-12-11T09:05:41.538Z,98640.50
2022-12-11T09:08:11.363Z,98639.66
2022-12-11T09:10:39.778Z,98631.97
2022-12-11T09:13:08.226Z,98631.31
2022-12-11T09:24:20.454Z,98622.09
2022-12-11T09:26:48.882Z,98624.59
2022-12-11T09:29:17.270Z,98643.00
2022-12-11T09:31:46.405Z,98631.97
2022-12-11T09:34:16.006Z,98637.28
2022-12-11T09:36:45.245Z,98633.00
2022-12-11T09:39:15.335Z,98629.56
2022-12-11T09:41:56.479Z,98605.31
2022-12-11T09:44:45.565Z,98630.28
2022-12-11T09:47:25.074Z,98613.81
2022-12-11T09:50:04.213Z,98610.34
2022-12-11T09:52:35.753Z,98622.50
2022-12-11T09:55:14.178Z,98605.19
2022-12-11T09:57:58.052Z,98623.19
2022-12-11T10:00:33.189Z,98622.94
2022-12-11T10:03:28.030Z,98625.78
2022-12-11T10:06:05.060Z,98608.47
2022-12-11T10:08:40.128Z,98600.78
2022-12-11T10:11:27.075Z,98614.34
2022-12-11T10:14:07.582Z,98616.34
2022-12-11T10:16:38.928Z,98614.28
2022-12-11T10:19:10.269Z,98619.25
2022-12-11T10:21:42.417Z,98615.34
2022-12-11T10:24:34.649Z,98619.13
2022-12-11T10:27:16.439Z,98612.69
2022-12-11T10:29:46.514Z,98606.81
2022-12-11T10:32:24.549Z,98610.94
2022-12-11T10:34:58.693Z,98618.41
2022-12-11T10:37:27.194Z,98610.94
2022-12-11T10:39:55.640Z,98604.16
2022-12-11T10:42:24.459Z,98605.03
2022-12-11T10:44:59.330Z,98610.19
2022-12-11T10:47:28.327Z,98611.94
2022-12-11T10:49:58.916Z,98603.88
2022-12-11T10:52:31.520Z,98598.44
2022-12-11T10:55:04.052Z,98595.69
2022-12-11T10:57:36.774Z,98589.84
2022-12-11T11:00:27.545Z,98586.28
2022-12-11T11:02:57.318Z,98587.91
2022-12-11T11:05:30.684Z,98557.38
2022-12-11T11:08:14.872Z,98567.66
2022-12-11T11:10:56.608Z,98560.72
2022-12-11T11:13:32.636Z,98557.56
2022-12-11T11:16:05.029Z,98541.66
2022-12-11T11:18:34.663Z,98552.34
2022-12-11T11:21:03.750Z,98535.38
2022-12-11T11:23:32.509Z,98523.91
2022-12-11T11:26:03.046Z,98539.47
2022-12-11T11:28:37.106Z,98528.69
2022-12-11T11:31:10.144Z,98531.56
2022-12-11T11:33:49.252Z,98532.09
2022-12-11T11:36:22.773Z,98517.78
2022-12-11T11:39:14.290Z,98531.13
2022-12-11T11:41:51.525Z,98519.16
2022-12-11T11:44:26.334Z,98519.53
2022-12-11T11:47:03.364Z,98517.94
2022-12-11T11:49:45.845Z,98521.16
2022-12-11T11:52:20.395Z,98501.19
2022-12-11T11:55:00.716Z,98513.31
2022-12-11T11:57:36.558Z,98493.81
2022-12-11T12:00:11.394Z,98491.81
2022-12-11T12:02:47.045Z,98494.22
2022-12-11T12:05:16.753Z,98495.41
2022-12-11T12:07:52.655Z,98499.31
2022-12-11T12:10:29.125Z,98504.25
2022-12-11T12:13:02.747Z,98501.59
2022-12-11T12:15:39.372Z,98514.69
2022-12-11T12:18:18.569Z,98509.72
2022-12-11T12:20:56.151Z,98505.91
2022-12-11T12:23:42.500Z,98505.63
2022-12-11T12:26:18.921Z,98500.34
2022-12-11T12:29:00.497Z,98494.72
2022-12-11T12:31:56.116Z,98499.25
2022-12-11T12:52:19.132Z,98486.84
2022-12-11T12:55:06.206Z,98487.75
2022-12-11T12:57:36.033Z,98491.63
2022-12-11T13:00:11.048Z,98493.94
2022-12-11T13:02:50.481Z,98500.34
2022-12-11T13:05:25.195Z,98500.91
2022-12-11T13:07:57.805Z,98499.72
2022-12-11T13:10:30.925Z,98509.06
2022-12-11T13:13:00.197Z,98502.66
2022-12-11T13:15:35.560Z,98516.50
2022-12-11T13:18:13.886Z,98523.00
2022-12-11T13:20:50.925Z,98522.19
2022-12-11T13:23:28.668Z,98515.38
2022-12-11T13:25:59.628Z,98516.56
2022-12-11T13:28:33.194Z,98518.25
2022-12-11T13:31:29.215Z,98521.00
2022-12-11T13:33:59.499Z,98524.31
2022-12-11T13:36:32.721Z,98514.94
2022-12-11T13:39:07.851Z,98522.56
2022-12-11T13:41:38.496Z,98517.56
2022-12-11T13:44:09.235Z,98518.38
2022-12-11T13:46:40.292Z,98519.03
2022-12-11T13:49:21.561Z,98527.75
2022-12-11T13:51:55.630Z,98523.31
2022-12-11T13:54:26.324Z,98531.22
2022-12-11T13:57:00.847Z,98530.66
2022-12-11T13:59:32.646Z,98534.53
2022-12-11T14:02:11.531Z,98538.25
2022-12-11T14:04:44.292Z,98542.84
2022-12-11T14:07:13.312Z,98542.19
2022-12-11T14:09:46.872Z,98555.41
2022-12-11T14:12:19.389Z,98541.69
2022-12-11T14:14:54.429Z,98535.69
2022-12-11T14:17:26.834Z,98560.00
2022-12-11T14:19:57.024Z,98552.31
2022-12-11T14:22:31.939Z,98538.44
2022-12-11T14:25:04.004Z,98551.47
2022-12-11T14:27:32.668Z,98547.13
2022-12-11T14:30:12.502Z,98554.91
2022-12-11T14:32:46.220Z,98537.66
2022-12-11T14:35:25.161Z,98548.88
2022-12-11T14:37:55.385Z,98535.97
2022-12-11T14:40:29.679Z,98554.19
2022-12-11T14:43:03.084Z,98547.31
2022-12-11T14:45:35.724Z,98542.13
2022-12-11T14:48:11.291Z,98549.03
2022-12-11T14:50:46.454Z,98550.75
2022-12-11T14:53:18.633Z,98553.34
2022-12-11T14:55:50.611Z,98546.47
2022-12-11T14:58:22.526Z,98559.47
2022-12-11T15:00:58.627Z,98545.66
2022-12-11T15:03:33.446Z,98555.16
2022-12-11T15:06:02.961Z,98558.63
2022-12-11T15:08:33.491Z,98555.16
2022-12-11T15:11:07.872Z,98551.69
2022-12-11T15:13:40.158Z,98545.66
2022-12-11T15:16:10.128Z,98556.03
2022-12-11T15:18:42.509Z,98558.63
2022-12-11T15:21:13.225Z,98546.53
2022-12-11T15:23:52.350Z,98556.03
2022-12-11T15:26:33.864Z,98558.63
2022-12-11T15:29:04.131Z,98562.91
2022-12-11T15:31:35.382Z,98559.44
2022-12-11T15:34:03.964Z,98563.78
2022-12-11T15:36:34.716Z,98560.28
2022-12-11T15:39:09.888Z,98555.97
2022-12-11T15:41:43.228Z,98559.44
2022-12-11T15:44:19.345Z,98567.22
2022-12-11T15:46:47.865Z,98561.16
2022-12-11T15:49:16.393Z,98565.53
2022-12-11T15:51:44.954Z,98563.81
2022-12-11T15:54:13.522Z,98556.88
2022-12-11T15:56:43.383Z,98556.00
2022-12-11T15:59:12.815Z,98561.19
2022-12-11T16:01:41.391Z,98555.97
2022-12-11T16:04:10.060Z,98555.94
2022-12-11T16:06:38.498Z,98560.25
2022-12-11T16:09:06.949Z,98561.09
2022-12-11T16:11:35.343Z,98558.44
2022-12-11T16:14:05.088Z,98564.38
2022-12-11T16:16:35.762Z,98568.66
2022-12-11T16:19:04.231Z,98576.34
2022-12-11T16:21:32.602Z,98560.00
2022-12-11T16:24:01.233Z,98558.22
2022-12-11T16:26:29.698Z,98553.84
2022-12-11T16:28:58.312Z,98559.03
2022-12-11T16:31:28.825Z,98566.72
2022-12-11T16:33:57.431Z,98561.53
2022-12-11T16:36:26.102Z,98564.03
2022-12-11T16:38:54.591Z,98552.69
2022-12-11T16:41:23.764Z,98560.47
2022-12-11T16:43:52.600Z,98556.88
2022-12-11T16:46:22.254Z,98556.03
2022-12-11T16:48:52.059Z,98562.94
2022-12-11T16:51:20.580Z,98567.22
2022-12-11T16:53:49.059Z,98553.31
2022-12-11T16:56:17.561Z,98558.56
2022-12-11T16:58:47.521Z,98562.00
2022-12-11T17:01:16.660Z,98560.16
2022-12-11T17:03:47.638Z,98558.38
2022-12-11T17:06:23.440Z,98554.25
2022-12-11T17:08:52.552Z,98550.56
2022-12-11T17:11:22.982Z,98552.22
2022-12-11T17:13:55.064Z,98550.44
2022-12-11T17:16:26.195Z,98553.72
2022-12-11T17:18:54.865Z,98544.34
2022-12-11T17:21:25.105Z,98547.03
2022-12-11T17:23:53.639Z,98551.19
2022-12-11T17:26:22.165Z,98545.94
2022-12-11T17:28:50.498Z,98544.84
2022-12-11T17:31:20.312Z,98513.78
2022-12-11T17:33:49.571Z,98548.47
2022-12-11T17:36:20.957Z,98538.16
2022-12-11T17:38:50.880Z,98546.88
2022-12-11T17:41:21.177Z,98546.69
2022-12-11T17:43:50.758Z,98554.53
2022-12-11T17:46:19.749Z,98558.84
2022-12-11T17:48:48.570Z,98554.56
2022-12-11T17:51:23.899Z,98560.56
2022-12-11T17:53:57.136Z,98554.50
2022-12-11T17:56:26.453Z,98546.69
2022-12-11T17:58:54.896Z,98559.69
2022-12-11T18:01:23.387Z,98522.50
2022-12-11T18:03:52.060Z,98550.25
2022-12-11T18:06:22.918Z,98547.69
2022-12-11T18:08:54.830Z,98547.44
2022-12-11T18:11:24.871Z,98550.88
2022-12-11T18:13:56.076Z,98538.97
2022-12-11T18:16:26.995Z,98545.97
2022-12-11T18:18:56.445Z,98546.97
2022-12-11T18:21:27.144Z,98534.97
2022-12-11T18:23:56.036Z,98552.25
2022-12-11T18:26:26.597Z,98554.06
2022-12-11T18:28:55.554Z,98551.38
2022-12-11T18:31:24.947Z,98539.38
2022-12-11T18:33:53.865Z,98534.94
2022-12-11T18:36:23.697Z,98553.91
2022-12-11T18:38:52.417Z,98549.81
2022-12-11T18:41:21.445Z,98548.09
2022-12-11T18:43:51.617Z,98548.06
2022-12-11T18:46:22.383Z,98547.22
2022-12-11T18:48:51.124Z,98546.25
2022-12-11T18:51:23.649Z,98552.19
2022-12-11T18:53:53.579Z,98542.75
2022-12-11T18:56:24.030Z,98553.94
2022-12-11T18:58:54.100Z,98551.41
2022-12-11T19:01:26.535Z,98547.25
2022-12-11T19:04:02.031Z,98529.84
2022-12-11T19:06:33.376Z,98529.97
2022-12-11T19:09:03.392Z,98550.75
2022-12-11T19:11:34.666Z,98536.97
2022-12-11T19:14:06.198Z,98532.56
2022-12-11T19:16:37.741Z,98533.47
2022-12-11T19:19:10.781Z,98543.09
2022-12-11T19:21:39.802Z,98536.91
2022-12-11T19:24:10.450Z,98535.19
2022-12-11T19:26:39.872Z,98555.00
2022-12-11T19:29:10.338Z,98552.44
2022-12-11T19:31:39.508Z,98547.16
2022-12-11T19:34:08.325Z,98541.03
2022-12-11T19:36:37.314Z,98551.53
2022-12-11T19:39:12.578Z,98520.38
2022-12-11T19:41:41.672Z,98542.13
2022-12-11T19:44:12.020Z,98527.34
2022-12-11T19:46:40.995Z,98531.44
2022-12-11T19:49:12.361Z,98521.91
2022-12-11T19:51:43.138Z,98536.41
2022-12-11T19:54:14.786Z,98523.31
2022-12-11T19:56:44.276Z,98550.00
2022-12-11T19:59:17.286Z,98545.59
2022-12-11T20:01:47.948Z,98524.19
2022-12-11T20:04:17.833Z,98544.97
2022-12-11T20:06:48.002Z,98534.50
2022-12-11T20:09:18.046Z,98522.38
2022-12-11T20:11:49.931Z,98549.25
2022-12-11T20:14:25.061Z,98562.13
2022-12-11T20:17:13.868Z,98543.75
2022-12-11T20:19:43.340Z,98548.19
2022-12-11T20:22:12.307Z,98543.22
2022-12-11T20:24:41.178Z,98540.59
2022-12-11T20:27:12.381Z,98545.00
2022-12-11T20:29:42.446Z,98549.34
2022-12-11T20:32:12.481Z,98555.38
2022-12-11T20:34:41.391Z,98545.88
2022-12-11T20:37:10.043Z,98562.38
2022-12-11T20:39:38.992Z,98563.41
2022-12-11T20:42:10.389Z,98565.94
2022-12-11T20:44:42.708Z,98534.81
2022-12-11T20:47:19.903Z,98558.34
2022-12-11T20:49:49.356Z,98549.72
2022-12-11T20:52:20.071Z,98561.97
2022-12-11T20:54:48.968Z,98538.56
2022-12-11T20:57:17.687Z,98552.59
2022-12-11T20:59:46.475Z,98554.22
2022-12-11T21:02:16.668Z,98560.22
2022-12-11T21:04:45.417Z,98537.69
2022-12-11T21:07:14.214Z,98541.97
2022-12-11T21:09:43.274Z,98548.81
2022-12-11T21:12:11.940Z,98562.75
2022-12-11T21:14:40.527Z,98549.78
2022-12-11T21:17:09.096Z,98562.03
2022-12-11T21:19:39.000Z,98561.19
2022-12-11T21:22:08.150Z,98557.72
2022-12-11T21:24:36.784Z,98556.06
2022-12-11T21:27:05.452Z,98565.66
2022-12-11T21:29:34.467Z,98562.16
2022-12-11T21:32:03.085Z,98559.59
2022-12-11T21:34:31.952Z,98566.41
2022-12-11T21:41:33.972Z,98564.72
2022-12-11T21:48:17.259Z,98566.19
2022-12-11T21:50:45.686Z,98565.31
2022-12-11T21:53:14.135Z,98567.06
2022-12-11T21:55:43.264Z,98568.97
2022-12-11T21:58:13.178Z,98573.31
2022-12-11T22:00:41.807Z,98577.69
2022-12-11T22:03:10.302Z,98582.91
2022-12-11T22:05:38.687Z,98581.09
2022-12-11T22:08:08.169Z,98568.16
2022-12-11T22:10:36.881Z,98576.72
2022-12-11T22:13:05.332Z,98583.53
2022-12-11T22:15:35.278Z,98579.28
2022-12-11T22:18:03.800Z,98574.22
2022-12-11T22:20:32.873Z,98573.47
2022-12-11T22:23:01.478Z,98588.09
2022-12-11T22:25:30.335Z,98578.72
2022-12-11T22:27:58.985Z,98587.34
2022-12-11T22:30:27.528Z,98588.19
2022-12-11T22:32:57.522Z,98592.47
2022-12-11T22:35:27.493Z,98587.09
2022-12-11T22:37:56.381Z,98588.63
2022-12-11T22:40:25.709Z,98589.28
2022-12-11T22:42:54.121Z,98592.53
2022-12-11T22:45:24.224Z,98589.97
2022-12-11T22:47:52.733Z,98589.78
2022-12-11T22:50:22.592Z,98597.38
2022-12-11T22:52:50.999Z,98595.59
2022-12-11T22:55:19.681Z,98591.13
2022-12-11T22:57:48.039Z,98591.13
2022-12-11T23:00:17.339Z,98584.34
2022-12-11T23:02:46.298Z,98592.06
2022-12-11T23:05:15.046Z,98598.94
2022-12-11T23:07:45.765Z,98601.63
2022-12-11T23:10:14.328Z,98594.88
2022-12-11T23:12:44.622Z,98591.44
2022-12-11T23:15:13.328Z,98586.28
2022-12-11T23:17:41.958Z,98598.94
2022-12-11T23:20:11.350Z,98595.34
2022-12-11T23:22:39.846Z,98601.16
2022-12-11T23:25:13.791Z,98596.91
2022-12-11T23:27:42.401Z,98599.44
2022-12-11T23:30:12.091Z,98603.72
2022-12-11T23:32:40.592Z,98603.00
2022-12-11T23:35:10.207Z,98608.09
2022-12-11T23:37:39.399Z,98605.44
2022-12-11T23:40:10.722Z,98599.56
2022-12-11T23:42:39.171Z,98615.03
2022-12-11T23:45:08.560Z,98610.75
2022-12-11T23:47:37.010Z,98609.81
2022-12-11T23:50:06.060Z,98610.38
2022-12-11T23:52:34.494Z,98608.63
2022-12-11T23:55:02.989Z,98612.53
2022-12-11T23:57:32.811Z,98610.69
